Terminal Aerodrome Forecast
Issued by NWS Glasgow, MT

Home | Current Version | Previous Version | Text Only | Print | Product List | Glossary On
Versions: 1 2 3 4 5 6 7 8 9 10 11 12 13 14
000
FTUS45 KGGW 231700
TAFGGW
TAF
KGGW 231734Z 2318/2418 23008KT P6SM SCT130 BKN200
     FM232100 26011KT P6SM BKN130
     FM240000 25006KT P6SM BKN200
     FM241700 28014KT P6SM BKN250=

USA.gov is the U.S. government's official web portal to all federal, state and local government web resources and services.